Time;durP1;ratioP1;P1;durP2;ratioP2;P2;SDS_P1;SDS_P2;PMS_P1;PMS_P2;Temp;Humidity;BMP_temperature;BMP_pressure;BME280_temperature;BME280_humidity;BME280_pressure;Samples;Min_cycle;Max_cycle;Signal;HPM_P1;HPM_P2
2022/10/14 00:02:14;;;;;;;6.65;5.97;;;;;;;23.27;44.15;96971.94;5034244;28;20021;-28
2022/10/14 00:04:39;;;;;;;6.72;5.68;;;;;;;23.28;43.96;96965.16;5034493;28;20025;-29
2022/10/14 00:07:05;;;;;;;7.78;6.25;;;;;;;23.20;44.44;96972.44;5033051;28;20470;-28
2022/10/14 00:09:30;;;;;;;7.18;5.75;;;;;;;23.20;44.24;96978.72;5034327;28;20393;-28
2022/10/14 00:11:56;;;;;;;8.20;5.78;;;;;;;23.22;44.23;96970.69;5034194;28;20025;-29
2022/10/14 00:14:21;;;;;;;8.68;6.30;;;;;;;23.21;44.12;96968.41;5033851;28;20111;-28
2022/10/14 00:16:51;;;;;;;7.15;6.00;;;;;;;23.18;44.29;96970.16;5034158;28;20079;-27
2022/10/14 00:19:16;;;;;;;9.50;6.03;;;;;;;23.20;44.26;96969.66;5033083;28;20475;-27
2022/10/14 00:21:44;;;;;;;7.88;5.97;;;;;;;23.21;44.01;96966.41;5034212;28;20029;-29
2022/10/14 00:24:15;;;;;;;6.95;5.78;;;;;;;23.18;43.98;96969.41;5033993;28;20017;-28
2022/10/14 00:26:42;;;;;;;8.07;5.88;;;;;;;23.18;44.48;96974.94;5033863;28;20359;-28
2022/10/14 00:29:12;;;;;;;8.15;5.82;;;;;;;23.17;44.20;96971.41;5034117;28;20373;-27
2022/10/14 00:31:38;;;;;;;6.90;5.70;;;;;;;23.19;44.26;96968.13;5033828;28;20025;-28
2022/10/14 00:34:04;;;;;;;7.93;6.05;;;;;;;23.17;44.13;96960.34;5033827;28;20045;-29
2022/10/14 00:36:29;;;;;;;8.18;5.60;;;;;;;23.17;44.36;96959.56;5032501;28;20040;-28
2022/10/14 00:38:55;;;;;;;7.28;5.82;;;;;;;23.18;44.33;96964.63;5033610;28;20049;-27
2022/10/14 00:41:27;;;;;;;7.22;6.10;;;;;;;23.17;44.50;96968.63;5033577;28;20059;-27
2022/10/14 00:44:01;;;;;;;7.80;5.60;;;;;;;23.21;44.16;96971.94;5033704;28;20102;-27
2022/10/14 00:46:30;;;;;;;7.00;6.25;;;;;;;23.14;44.30;96980.69;5032557;28;20036;-28
2022/10/14 00:49:00;;;;;;;8.65;6.18;;;;;;;23.16;44.14;96975.41;5033774;28;20032;-28
2022/10/14 00:51:26;;;;;;;7.30;5.65;;;;;;;23.22;44.20;96970.69;5033742;28;20022;-28
2022/10/14 00:53:52;;;;;;;8.52;6.30;;;;;;;23.21;43.86;96968.41;5033509;28;20363;-29
2022/10/14 00:56:23;;;;;;;6.55;5.53;;;;;;;23.14;43.75;96969.63;5033466;28;20022;-28
2022/10/14 00:58:50;;;;;;;7.15;6.07;;;;;;;23.16;43.61;96971.91;5033455;28;20026;-28
2022/10/14 01:01:16;;;;;;;7.55;6.18;;;;;;;23.16;44.03;96964.34;5033374;28;20034;-28
2022/10/14 01:03:41;;;;;;;7.07;5.78;;;;;;;23.20;43.66;96955.81;5033678;28;20378;-28
2022/10/14 01:06:25;;;;;;;7.25;6.18;;;;;;;23.16;44.01;96963.59;5033707;28;20030;-29
2022/10/14 01:09:14;;;;;;;8.07;6.18;;;;;;;23.18;43.94;96952.78;5033399;28;20025;-28
2022/10/14 01:12:04;;;;;;;8.10;6.15;;;;;;;23.12;43.64;96952.75;5033480;28;20374;-29
2022/10/14 01:14:37;;;;;;;7.28;6.00;;;;;;;23.16;43.69;96955.28;5033501;28;20025;-28
2022/10/14 01:17:15;;;;;;;7.05;6.00;;;;;;;23.16;44.07;96952.53;5033469;28;20091;-27
2022/10/14 01:20:02;;;;;;;8.75;6.40;;;;;;;23.13;43.58;96945.97;5033617;28;20048;-28
2022/10/14 01:22:38;;;;;;;8.18;6.30;;;;;;;23.14;43.78;96941.97;5032599;28;20449;-28
2022/10/14 01:25:29;;;;;;;10.52;6.43;;;;;;;23.12;43.82;96933.41;5034639;28;20033;-28
2022/10/14 01:28:17;;;;;;;8.18;6.68;;;;;;;23.15;43.61;96937.94;5037452;28;20017;-28
2022/10/14 01:30:47;;;;;;;7.03;5.63;;;;;;;23.10;43.93;96930.38;5037205;28;20037;-30
2022/10/14 01:33:36;;;;;;;7.43;6.07;;;;;;;23.11;43.71;96926.38;5037218;28;20021;-28
2022/10/14 01:36:11;;;;;;;7.28;6.38;;;;;;;23.15;43.58;96926.13;5035980;28;20083;-28
2022/10/14 01:38:41;;;;;;;8.40;5.18;;;;;;;23.15;43.33;96924.09;5035554;28;20029;-28
2022/10/14 01:41:13;;;;;;;6.93;5.80;;;;;;;23.11;43.49;96920.09;5035536;28;20025;-28
2022/10/14 01:43:42;;;;;;;9.52;5.72;;;;;;;23.13;43.42;96912.00;5037014;28;20052;-28
2022/10/14 01:46:10;;;;;;;7.30;6.00;;;;;;;23.12;43.31;96911.25;5036945;28;20064;-29
2022/10/14 01:48:41;;;;;;;7.95;5.82;;;;;;;23.10;43.22;96913.03;5036953;28;20021;-28
2022/10/14 01:51:13;;;;;;;7.70;5.78;;;;;;;23.14;43.12;96908.00;5036944;28;20434;-28
2022/10/14 01:53:42;;;;;;;6.55;5.40;;;;;;;23.11;43.32;96914.56;5036750;28;20104;-28
2022/10/14 01:56:11;;;;;;;8.63;5.20;;;;;;;23.09;43.33;96906.75;5037212;28;20028;-28
2022/10/14 01:58:38;;;;;;;6.75;5.68;;;;;;;23.12;43.07;96911.25;5036642;28;20021;-28
2022/10/14 02:01:07;;;;;;;7.13;5.82;;;;;;;23.07;43.26;96908.50;5036693;28;20072;-27
2022/10/14 02:03:44;;;;;;;6.85;5.45;;;;;;;23.07;43.04;96914.78;5036584;28;20057;-28
2022/10/14 02:06:16;;;;;;;8.07;5.88;;;;;;;23.05;43.35;96916.53;5035502;28;20025;-28
2022/10/14 02:09:03;;;;;;;8.27;5.80;;;;;;;23.03;43.12;96908.72;5035507;28;20037;-28
2022/10/14 02:12:07;;;;;;;6.60;5.68;;;;;;;23.02;43.03;96907.22;5036493;28;20021;-28
2022/10/14 02:14:42;;;;;;;8.60;5.88;;;;;;;23.01;43.35;96905.69;5034797;28;20037;-28
2022/10/14 02:17:36;;;;;;;6.57;5.30;;;;;;;23.01;43.40;96904.94;5035210;28;20057;-28
2022/10/14 02:20:17;;;;;;;7.40;5.35;;;;;;;23.03;43.36;96905.94;5036546;28;20485;-28
2022/10/14 02:22:49;;;;;;;6.82;5.50;;;;;;;23.03;43.37;96899.66;5036373;28;20033;-28
2022/10/14 02:25:19;;;;;;;6.65;5.95;;;;;;;23.07;43.11;96895.41;5036182;28;20053;-29
2022/10/14 02:27:48;;;;;;;9.73;6.45;;;;;;;23.03;43.47;96897.66;5036533;28;20665;-28
2022/10/14 02:30:15;;;;;;;7.55;5.63;;;;;;;22.95;43.80;96896.63;5036295;28;20076;-27
2022/10/14 02:32:42;;;;;;;6.05;4.93;;;;;;;23.01;43.25;96889.09;5034762;28;20045;-27
2022/10/14 02:35:09;;;;;;;7.95;5.78;;;;;;;23.02;43.84;96887.09;5036269;28;20026;-29
2022/10/14 02:37:37;;;;;;;6.70;5.80;;;;;;;23.02;43.29;96890.59;5036061;28;20024;-28
2022/10/14 02:40:41;;;;;;;8.15;5.97;;;;;;;22.97;43.59;96877.53;5035698;28;20564;-28
2022/10/14 02:43:09;;;;;;;6.90;5.50;;;;;;;22.97;43.85;96885.06;5034037;28;20521;-28
2022/10/14 02:45:36;;;;;;;7.57;6.07;;;;;;;22.99;43.46;96875.03;5033789;28;20413;-28
2022/10/14 02:48:02;;;;;;;6.82;5.65;;;;;;;22.93;44.00;96874.25;5033794;28;20129;-29
2022/10/14 02:50:28;;;;;;;8.75;5.65;;;;;;;22.93;43.45;96879.78;5033558;28;20045;-28
2022/10/14 02:52:53;;;;;;;6.53;5.70;;;;;;;22.93;43.75;96877.75;5033779;28;20025;-29
2022/10/14 02:55:19;;;;;;;7.78;5.40;;;;;;;22.98;43.67;96881.81;5017239;28;20025;-28
2022/10/14 02:57:44;;;;;;;7.05;5.43;;;;;;;22.96;43.68;96878.03;5033824;28;20041;-28
2022/10/14 03:00:10;;;;;;;6.93;5.72;;;;;;;22.91;43.44;96882.28;5033570;28;20033;-29
2022/10/14 03:02:37;;;;;;;8.25;5.90;;;;;;;22.92;43.58;96872.72;5033605;28;20041;-28
2022/10/14 03:05:03;;;;;;;8.35;5.97;;;;;;;22.90;43.89;96872.47;5033434;28;20052;-28
2022/10/14 03:07:29;;;;;;;7.15;5.18;;;;;;;22.90;43.59;96872.47;5033484;28;20025;-28
2022/10/14 03:09:55;;;;;;;10.00;6.10;;;;;;;22.92;43.37;96875.50;5033571;28;20551;-28
2022/10/14 03:12:20;;;;;;;7.88;5.55;;;;;;;22.85;43.87;96870.44;5033317;28;20025;-28
2022/10/14 03:14:46;;;;;;;6.10;5.47;;;;;;;22.87;43.55;96876.97;5016723;28;20032;-29
2022/10/14 03:17:11;;;;;;;7.60;5.65;;;;;;;22.88;43.73;96880.50;5034531;28;20042;-28
2022/10/14 03:19:37;;;;;;;6.43;5.43;;;;;;;22.86;43.76;96883.78;5035502;28;20083;-28
2022/10/14 03:22:02;;;;;;;8.50;5.85;;;;;;;22.84;43.80;96878.00;5035101;28;20600;-28
2022/10/14 03:24:28;;;;;;;7.53;5.93;;;;;;;22.84;43.68;96877.25;5035390;28;20068;-29
2022/10/14 03:26:53;;;;;;;7.47;5.85;;;;;;;22.88;43.78;96877.72;5035425;28;20022;-28
2022/10/14 03:29:18;;;;;;;7.60;5.63;;;;;;;22.88;43.22;96877.72;5035248;28;20025;-28
2022/10/14 03:31:44;;;;;;;7.63;5.90;;;;;;;22.82;43.51;96876.97;5034970;28;20044;-29
2022/10/14 03:34:10;;;;;;;8.30;6.05;;;;;;;22.83;43.64;96879.25;5035067;28;20036;-28
2022/10/14 03:36:35;;;;;;;8.68;6.03;;;;;;;22.82;43.50;96876.97;5034999;28;20025;-28
2022/10/14 03:39:01;;;;;;;7.53;5.78;;;;;;;22.87;43.32;96879.00;5034701;28;20433;-28
2022/10/14 03:41:27;;;;;;;7.93;5.50;;;;;;;22.86;43.61;96871.97;5033727;28;20033;-28
2022/10/14 03:43:52;;;;;;;7.43;5.95;;;;;;;22.80;43.86;96873.94;5034777;28;20075;-28
2022/10/14 03:46:18;;;;;;;7.10;5.90;;;;;;;22.84;43.55;96882.75;5034812;28;20022;-29
2022/10/14 03:48:44;;;;;;;8.05;5.97;;;;;;;22.80;43.42;96885.75;5034172;28;20432;-28
2022/10/14 03:51:09;;;;;;;6.28;5.57;;;;;;;22.79;43.59;96877.97;5034764;28;20033;-28
2022/10/14 03:53:35;;;;;;;8.75;5.80;;;;;;;22.78;43.71;96876.44;5034557;28;20044;-28
2022/10/14 03:56:00;;;;;;;6.50;5.47;;;;;;;22.81;43.48;96872.69;5034556;28;20030;-28
2022/10/14 03:58:26;;;;;;;6.55;5.68;;;;;;;22.84;43.30;96874.47;5034756;28;20075;-28
2022/10/14 04:00:51;;;;;;;7.53;5.75;;;;;;;22.82;43.65;96865.91;5034430;28;20021;-29
2022/10/14 04:03:17;;;;;;;9.20;5.80;;;;;;;22.78;43.71;96870.91;5034621;28;20422;-28
2022/10/14 04:05:42;;;;;;;8.77;6.72;;;;;;;22.77;43.64;96859.09;5033454;28;20037;-28
2022/10/14 04:08:09;;;;;;;7.40;5.90;;;;;;;22.84;43.76;96866.19;5034562;28;20055;-29
2022/10/14 04:10:34;;;;;;;7.30;5.72;;;;;;;22.82;43.77;96860.38;5034237;28;20052;-28
2022/10/14 04:13:00;;;;;;;7.22;6.35;;;;;;;22.81;43.69;96858.88;5034135;28;20029;-29
2022/10/14 04:15:26;;;;;;;8.70;5.93;;;;;;;22.81;43.50;96848.56;5034413;28;20030;-28
2022/10/14 04:17:52;;;;;;;7.10;5.72;;;;;;;22.71;43.80;96847.25;5034163;28;20166;-28
2022/10/14 04:20:18;;;;;;;7.32;6.00;;;;;;;22.77;43.93;96855.56;5034060;28;20482;-29
2022/10/14 04:22:44;;;;;;;9.10;6.25;;;;;;;22.76;43.48;96854.06;5034415;28;20378;-29
2022/10/14 04:25:09;;;;;;;6.32;5.50;;;;;;;22.74;43.54;96857.31;5034067;28;20025;-28
2022/10/14 04:27:36;;;;;;;6.72;5.72;;;;;;;22.77;43.94;96853.56;5032977;28;20386;-28
2022/10/14 04:30:03;;;;;;;7.28;5.85;;;;;;;22.75;43.60;96864.34;5034279;28;20025;-29
2022/10/14 04:32:28;;;;;;;7.07;5.55;;;;;;;22.74;43.77;96853.78;5033719;28;20022;-28
2022/10/14 04:34:55;;;;;;;7.90;5.35;;;;;;;22.80;43.72;96858.09;5034210;28;20029;-28
2022/10/14 04:37:20;;;;;;;7.30;5.38;;;;;;;22.74;43.81;96856.56;5033754;28;20075;-28
2022/10/14 04:39:46;;;;;;;6.88;5.90;;;;;;;22.74;43.23;96854.56;5033500;28;20433;-28
2022/10/14 04:42:11;;;;;;;9.50;6.05;;;;;;;22.75;43.41;96852.53;5033714;28;20057;-29
2022/10/14 04:44:37;;;;;;;6.03;5.10;;;;;;;22.76;43.71;96846.53;5033814;28;20033;-28
2022/10/14 04:47:03;;;;;;;8.18;5.18;;;;;;;22.74;43.69;96853.78;5033708;28;20068;-28
2022/10/14 04:49:28;;;;;;;8.82;5.20;;;;;;;22.74;43.50;96853.78;5033766;28;20029;-28
2022/10/14 04:51:54;;;;;;;8.48;5.80;;;;;;;22.73;43.40;96857.81;5033582;28;20072;-28
2022/10/14 04:54:19;;;;;;;10.73;5.25;;;;;;;22.68;43.41;96850.25;5033812;28;20031;-28
2022/10/14 04:56:45;;;;;;;6.43;5.13;;;;;;;22.72;43.51;96850.75;5033551;28;20461;-28
2022/10/14 04:59:11;;;;;;;6.63;5.80;;;;;;;22.76;43.49;96851.28;5032762;28;20065;-28
2022/10/14 05:01:38;;;;;;;8.18;5.82;;;;;;;22.67;43.52;96843.94;5033556;28;20021;-28
2022/10/14 05:04:03;;;;;;;8.07;5.50;;;;;;;22.76;43.59;96846.53;5033491;28;20029;-28
2022/10/14 05:06:29;;;;;;;7.28;5.75;;;;;;;22.71;43.64;96843.72;5032138;28;20044;-28
2022/10/14 05:08:55;;;;;;;6.68;5.82;;;;;;;22.73;43.29;96844.00;5033481;28;20025;-29
2022/10/14 05:11:20;;;;;;;9.35;5.90;;;;;;;22.68;43.46;96836.41;5033437;28;20026;-28
2022/10/14 05:13:45;;;;;;;6.75;5.97;;;;;;;22.71;43.39;96844.47;5033441;28;20025;-29
2022/10/14 05:16:12;;;;;;;8.45;6.28;;;;;;;22.72;43.42;96839.72;5033380;28;20059;-28
2022/10/14 05:18:38;;;;;;;7.72;5.78;;;;;;;22.72;43.65;96850.75;5033311;28;20083;-28
2022/10/14 05:21:04;;;;;;;8.50;5.68;;;;;;;22.69;43.01;96846.22;5033326;28;20040;-28
2022/10/14 05:23:30;;;;;;;6.53;5.93;;;;;;;22.70;43.18;96842.97;5033420;28;20025;-29
2022/10/14 05:25:55;;;;;;;6.60;5.25;;;;;;;22.72;43.46;96846.00;5033359;28;20366;-28
2022/10/14 05:28:21;;;;;;;7.10;5.70;;;;;;;22.74;43.27;96842.72;5033239;28;20377;-28
2022/10/14 05:30:46;;;;;;;7.85;6.03;;;;;;;22.69;43.03;96841.44;5032289;28;20036;-28
2022/10/14 05:33:12;;;;;;;7.57;5.90;;;;;;;22.58;43.42;96842.16;5032223;28;20032;-29
2022/10/14 05:35:37;;;;;;;9.15;5.68;;;;;;;22.68;43.02;96842.69;5032638;28;20087;-28
2022/10/14 05:38:03;;;;;;;6.40;5.05;;;;;;;22.62;43.69;96841.94;5033203;28;20470;-28
2022/10/14 05:40:29;;;;;;;8.02;5.50;;;;;;;22.63;43.52;96848.19;5032901;28;20049;-28
2022/10/14 05:42:54;;;;;;;7.05;5.60;;;;;;;22.64;43.59;96842.16;5033078;28;20033;-29
2022/10/14 05:45:20;;;;;;;8.05;5.70;;;;;;;22.71;43.17;96838.19;5033175;28;20083;-28
2022/10/14 05:47:46;;;;;;;6.50;5.70;;;;;;;22.63;43.41;96834.38;5033325;28;20029;-28
2022/10/14 05:50:12;;;;;;;8.13;5.78;;;;;;;22.63;43.24;96837.13;5031869;28;20492;-27
2022/10/14 05:52:39;;;;;;;7.28;5.90;;;;;;;22.64;43.16;96833.88;5032901;28;20032;-29
2022/10/14 05:55:06;;;;;;;7.63;5.57;;;;;;;22.61;43.00;96843.19;5033013;28;20437;-28
2022/10/14 05:57:32;;;;;;;7.50;6.10;;;;;;;22.70;42.88;96847.75;5032997;28;20025;-28
2022/10/14 06:00:01;;;;;;;7.88;5.85;;;;;;;22.68;43.27;96839.19;5033018;28;20053;-28
2022/10/14 06:02:26;;;;;;;7.25;5.97;;;;;;;22.65;43.27;96848.47;5032747;28;20480;-28
2022/10/14 06:04:52;;;;;;;7.82;5.70;;;;;;;22.56;43.73;96847.44;5032866;28;20033;-28
2022/10/14 06:07:17;;;;;;;7.25;6.03;;;;;;;22.69;43.49;96851.75;5031713;28;20025;-28
2022/10/14 06:09:59;;;;;;;7.22;5.85;;;;;;;22.66;43.45;96842.44;5032937;28;20060;-28
2022/10/14 06:12:25;;;;;;;8.48;6.18;;;;;;;22.56;43.67;96849.44;5036080;28;20029;-28
2022/10/14 06:14:50;;;;;;;6.43;5.68;;;;;;;22.67;43.02;96851.50;5036440;28;20021;-28
2022/10/14 06:17:16;;;;;;;8.82;6.20;;;;;;;22.66;43.64;96842.44;5036563;28;20052;-28
2022/10/14 06:19:41;;;;;;;8.93;6.07;;;;;;;22.65;43.30;96846.44;5036468;28;20025;-28
2022/10/14 06:22:07;;;;;;;8.68;6.03;;;;;;;22.65;43.64;96845.69;5036291;28;20021;-28
2022/10/14 06:24:32;;;;;;;6.55;5.88;;;;;;;22.61;43.39;96848.72;5028182;28;20072;-28
2022/10/14 06:26:59;;;;;;;6.78;5.97;;;;;;;22.66;42.96;96845.19;5024653;28;20055;-28
2022/10/14 06:29:30;;;;;;;9.50;6.32;;;;;;;22.58;43.26;96847.69;5034434;28;20028;-28
2022/10/14 06:31:55;;;;;;;7.53;5.93;;;;;;;22.67;42.96;96849.47;5015133;28;20071;-28
2022/10/14 06:34:22;;;;;;;7.07;5.72;;;;;;;22.70;43.36;96856.03;5013167;28;20112;-28
2022/10/14 06:36:48;;;;;;;8.48;5.90;;;;;;;22.66;43.38;96855.50;5014286;28;20026;-28
2022/10/14 06:39:13;;;;;;;9.02;6.00;;;;;;;22.66;43.55;96852.75;5013080;28;20042;-28
2022/10/14 06:41:39;;;;;;;7.28;5.75;;;;;;;22.66;43.18;96856.25;5012808;28;20026;-28
2022/10/14 06:44:04;;;;;;;8.63;6.28;;;;;;;22.69;43.17;96852.50;5030239;28;20428;-28
2022/10/14 06:46:30;;;;;;;6.70;5.53;;;;;;;22.67;43.15;96863.31;5016229;28;20022;-28
2022/10/14 06:48:56;;;;;;;7.28;5.53;;;;;;;22.62;43.50;96855.00;5016088;28;20120;-28
2022/10/14 06:51:21;;;;;;;7.88;5.53;;;;;;;22.64;43.57;96858.75;5016041;28;20018;-28
2022/10/14 06:53:46;;;;;;;9.15;5.97;;;;;;;22.58;43.95;96860.75;5016096;28;20022;-28
2022/10/14 06:56:13;;;;;;;6.55;5.68;;;;;;;22.66;43.37;96864.56;5015948;28;20028;-28
2022/10/14 06:58:39;;;;;;;10.32;5.63;;;;;;;22.68;43.41;96866.81;5015873;28;20413;-28
2022/10/14 07:01:06;;;;;;;8.63;5.45;;;;;;;22.67;43.42;96865.31;5016142;28;20026;-28
2022/10/14 07:03:37;;;;;;;9.43;6.00;;;;;;;22.60;43.63;96876.84;5015807;28;20482;-29
2022/10/14 07:06:04;;;;;;;7.05;5.30;;;;;;;22.68;43.37;96878.66;5014709;28;20367;-28
2022/10/14 07:08:30;;;;;;;6.95;5.82;;;;;;;22.57;43.82;96884.13;5015794;28;20029;-28
2022/10/14 07:10:55;;;;;;;6.70;5.05;;;;;;;22.68;43.33;96880.66;5015897;28;20022;-28
2022/10/14 07:13:21;;;;;;;6.47;5.30;;;;;;;22.65;43.79;96878.88;5014998;28;20105;-28
2022/10/14 07:15:48;;;;;;;8.80;5.60;;;;;;;22.70;43.50;96884.44;5015664;28;20390;-28
2022/10/14 07:18:13;;;;;;;7.32;6.10;;;;;;;22.72;43.62;96886.72;5015599;28;20029;-28
2022/10/14 07:20:38;;;;;;;8.13;5.80;;;;;;;22.66;43.82;96880.38;5015259;28;20034;-29
2022/10/14 07:23:04;;;;;;;6.53;5.45;;;;;;;22.63;43.81;96875.84;5014547;28;20030;-28
2022/10/14 07:25:31;;;;;;;9.57;6.38;;;;;;;22.64;44.13;96880.13;5015450;28;20028;-28
2022/10/14 07:27:57;;;;;;;9.25;5.90;;;;;;;22.62;44.35;96875.13;5015345;28;20086;-28
2022/10/14 07:30:23;;;;;;;8.40;5.82;;;;;;;22.60;44.15;96882.38;5015170;28;20026;-28
2022/10/14 07:32:48;;;;;;;7.90;5.60;;;;;;;22.61;44.11;96875.59;5015224;28;20068;-28
2022/10/14 07:35:15;;;;;;;6.35;5.10;;;;;;;22.62;44.44;96880.63;5015532;28;20363;-29
2022/10/14 07:37:40;;;;;;;7.90;5.82;;;;;;;22.60;44.21;96885.91;5015378;28;20022;-28
2022/10/14 07:40:08;;;;;;;7.13;5.68;;;;;;;22.70;43.82;96883.69;5014779;28;20057;-28
2022/10/14 07:42:34;;;;;;;8.30;5.28;;;;;;;22.63;44.30;96886.91;5015103;28;20029;-28
2022/10/14 07:44:59;;;;;;;8.80;6.10;;;;;;;22.62;44.32;96879.88;5015113;28;20030;-28
2022/10/14 07:47:25;;;;;;;7.03;6.20;;;;;;;22.71;44.07;96879.66;5033803;28;20028;-28
2022/10/14 07:49:50;;;;;;;7.70;5.45;;;;;;;22.66;44.23;96883.16;5028275;28;20037;-28
2022/10/14 07:52:19;;;;;;;8.25;5.80;;;;;;;22.69;44.62;96887.69;5022364;28;20022;-28
2022/10/14 07:54:45;;;;;;;13.18;7.15;;;;;;;22.09;45.52;96884.09;5033833;28;20025;-28
2022/10/14 07:57:11;;;;;;;12.40;7.93;;;;;;;21.54;45.35;96887.13;5034443;28;20028;-28
2022/10/14 07:59:37;;;;;;;20.63;9.52;;;;;;;21.24;46.01;96895.63;5022482;28;20048;-28
2022/10/14 08:02:03;;;;;;;16.83;8.65;;;;;;;21.46;45.67;96886.81;5014404;28;20026;-29
2022/10/14 08:04:28;;;;;;;14.70;8.60;;;;;;;21.14;46.56;96900.50;5014590;28;20024;-27
2022/10/14 08:06:54;;;;;;;13.88;7.57;;;;;;;21.71;45.28;96899.84;5022748;28;20026;-27
2022/10/14 08:09:20;;;;;;;14.55;7.13;;;;;;;22.06;44.82;96896.88;5014660;28;20033;-27
2022/10/14 08:11:45;;;;;;;11.80;6.53;;;;;;;22.23;44.05;96897.00;5014612;28;20076;-27
2022/10/14 08:14:11;;;;;;;12.40;7.00;;;;;;;22.31;44.17;96883.47;5013709;28;20030;-26
2022/10/14 08:16:37;;;;;;;10.65;6.07;;;;;;;22.37;44.04;96887.81;5014482;28;20017;-27
2022/10/14 08:19:06;;;;;;;11.48;6.68;;;;;;;22.50;43.94;96893.63;5013814;28;20474;-28
2022/10/14 08:21:31;;;;;;;11.63;6.28;;;;;;;22.58;43.73;96893.94;5014315;28;20478;-27
2022/10/14 08:23:57;;;;;;;9.57;6.40;;;;;;;22.53;43.70;96898.16;5014387;28;20060;-26
2022/10/14 08:26:37;;;;;;;9.85;5.75;;;;;;;22.56;43.73;96893.66;5014591;28;20025;-27
2022/10/14 08:29:05;;;;;;;10.32;5.85;;;;;;;22.53;43.68;96898.16;5014217;28;20477;-27
2022/10/14 08:31:32;;;;;;;9.73;5.78;;;;;;;22.64;43.55;96905.75;5014503;28;20130;-27
2022/10/14 08:33:58;;;;;;;8.52;6.00;;;;;;;22.51;44.04;96894.38;5014023;28;20477;-27
2022/10/14 08:36:24;;;;;;;8.38;5.78;;;;;;;22.64;43.87;96891.94;5014166;28;20044;-29
2022/10/14 08:38:52;;;;;;;6.30;5.03;;;;;;;22.65;44.00;96892.69;5013817;28;20132;-27
2022/10/14 08:41:36;;;;;;;8.85;5.97;;;;;;;22.42;44.57;96892.59;5014375;28;20466;-28
2022/10/14 08:44:04;;;;;;;8.23;5.72;;;;;;;22.56;44.09;96891.66;5010986;28;20040;-27
2022/10/14 08:46:41;;;;;;;9.18;5.20;;;;;;;22.61;43.73;96890.19;5012885;28;20030;-27
2022/10/14 08:49:28;;;;;;;7.65;6.05;;;;;;;22.60;43.75;96896.19;5014173;28;20032;-27
2022/10/14 08:52:02;;;;;;;7.82;5.45;;;;;;;22.63;44.02;96895.19;5013867;28;20022;-27
2022/10/14 08:54:39;;;;;;;7.10;5.60;;;;;;;22.55;44.16;96895.66;5013897;28;20034;-27
2022/10/14 08:57:16;;;;;;;6.80;5.28;;;;;;;22.65;43.95;96906.50;5013890;28;20018;-27
2022/10/14 08:59:42;;;;;;;7.80;5.55;;;;;;;22.65;43.83;96901.75;5013859;28;20033;-27
2022/10/14 09:02:19;;;;;;;6.15;5.07;;;;;;;22.69;43.57;96896.00;5013617;28;20036;-27
2022/10/14 09:04:45;;;;;;;6.68;4.95;;;;;;;22.68;44.08;96895.22;5013948;28;20458;-27
2022/10/14 09:07:16;;;;;;;9.20;6.15;;;;;;;22.67;43.82;96899.25;5013918;28;20049;-28
2022/10/14 09:09:45;;;;;;;9.63;5.90;;;;;;;22.67;43.72;96898.50;5014019;28;20052;-27
2022/10/14 09:12:14;;;;;;;7.03;5.45;;;;;;;22.69;44.08;96893.22;5013646;28;20025;-28
2022/10/14 09:14:46;;;;;;;6.75;6.05;;;;;;;22.60;44.31;96888.66;5013645;28;20462;-27
2022/10/14 09:17:30;;;;;;;9.40;5.83;;;;;;;22.51;44.48;96897.16;5013741;28;20112;-26
2022/10/14 09:20:15;;;;;;;8.82;5.95;;;;;;;22.67;44.23;96904.00;5013669;28;20025;-27
2022/10/14 09:22:41;;;;;;;7.30;5.18;;;;;;;22.66;43.79;96908.03;5013577;28;20025;-27
2022/10/14 09:25:16;;;;;;;7.82;5.97;;;;;;;22.61;44.36;96915.06;5013500;28;20536;-27
2022/10/14 09:27:42;;;;;;;7.68;5.30;;;;;;;22.69;44.08;96912.56;5013564;28;20097;-28
2022/10/14 09:30:19;;;;;;;6.45;5.68;;;;;;;22.64;44.35;96910.53;5013385;28;20422;-28
2022/10/14 09:32:50;;;;;;;5.75;4.70;;;;;;;22.55;44.21;96919.78;5013441;28;20030;-27
2022/10/14 09:35:31;;;;;;;7.07;5.15;;;;;;;22.49;44.36;96917.00;5013572;28;20039;-27
2022/10/14 09:37:57;;;;;;;7.72;5.55;;;;;;;22.56;44.45;96922.06;5013539;28;20026;-27
2022/10/14 09:40:58;;;;;;;6.35;5.18;;;;;;;22.68;44.25;96919.34;5013186;28;20120;-26
2022/10/14 09:43:24;;;;;;;6.25;5.32;;;;;;;22.69;44.09;96924.41;5012184;28;20045;-27
2022/10/14 09:45:57;;;;;;;7.03;5.05;;;;;;;22.57;44.29;96918.06;5014264;28;20037;-28
2022/10/14 09:48:32;;;;;;;5.93;5.18;;;;;;;22.66;44.23;96921.84;5016107;28;20028;-28
2022/10/14 09:51:02;;;;;;;5.75;4.88;;;;;;;22.69;44.48;96912.56;5017131;28;20393;-27
2022/10/14 09:53:46;;;;;;;7.80;5.53;;;;;;;22.29;44.90;96914.34;5017176;28;20450;-27
2022/10/14 09:56:12;;;;;;;6.00;4.75;;;;;;;22.36;44.95;96911.16;5017363;28;20021;-27
2022/10/14 09:58:54;;;;;;;7.38;5.15;;;;;;;22.63;44.60;96911.78;5015830;28;20093;-28
2022/10/14 10:01:26;;;;;;;6.05;5.13;;;;;;;22.67;44.64;96906.78;5016923;28;20382;-27
2022/10/14 10:03:52;;;;;;;9.32;5.07;;;;;;;22.37;44.88;96909.16;5016937;28;20475;-27
2022/10/14 10:06:26;;;;;;;9.85;5.43;;;;;;;22.48;44.37;96903.69;5017179;28;20037;-27
2022/10/14 10:08:52;;;;;;;6.57;5.25;;;;;;;22.65;44.56;96901.00;5016969;28;20385;-27
2022/10/14 10:11:32;;;;;;;7.28;5.07;;;;;;;22.70;44.47;96900.28;5016732;28;20116;-27
2022/10/14 10:13:58;;;;;;;6.97;5.10;;;;;;;22.43;44.75;96901.63;5016847;28;20065;-27
2022/10/14 10:16:33;;;;;;;5.60;4.72;;;;;;;22.47;44.76;96904.94;5016731;28;20100;-27
2022/10/14 10:19:30;;;;;;;7.10;4.82;;;;;;;22.70;44.51;96905.78;5016800;28;20017;-27
2022/10/14 10:22:21;;;;;;;7.25;5.25;;;;;;;22.63;44.32;96900.72;5016631;28;20041;-27
2022/10/14 10:24:49;;;;;;;5.78;4.50;;;;;;;22.50;44.67;96895.66;5015782;28;20033;-27
2022/10/14 10:27:45;;;;;;;8.50;4.97;;;;;;;22.50;44.34;96896.38;5016499;28;20517;-27
2022/10/14 10:30:34;;;;;;;5.95;5.20;;;;;;;22.66;44.15;96899.75;5015980;28;20124;-27
2022/10/14 10:33:39;;;;;;;6.43;5.03;;;;;;;22.75;44.24;96894.75;5015345;28;20053;-28
2022/10/14 10:36:17;;;;;;;7.38;4.70;;;;;;;22.65;44.51;96893.44;5014067;28;20080;-27
2022/10/14 10:39:15;;;;;;;4.85;4.35;;;;;;;22.72;44.45;96893.00;5016182;28;20470;-27
2022/10/14 10:42:11;;;;;;;5.57;4.95;;;;;;;22.37;44.31;96890.56;5016228;28;20637;-27
2022/10/14 10:45:00;;;;;;;5.40;4.35;;;;;;;22.66;44.58;96888.69;5016332;28;20105;-27
2022/10/14 10:47:53;;;;;;;6.32;4.60;;;;;;;22.71;44.01;96876.91;5016261;28;20390;-27
2022/10/14 10:50:46;;;;;;;6.90;4.75;;;;;;;22.53;44.64;96878.81;5016098;28;20018;-26
2022/10/14 10:53:23;;;;;;;6.37;4.40;;;;;;;22.73;44.41;96875.16;5016035;28;20030;-29
2022/10/14 10:56:03;;;;;;;6.53;4.43;;;;;;;22.75;44.04;96869.13;5015888;28;20266;-26
2022/10/14 10:58:34;;;;;;;6.45;4.63;;;;;;;22.71;44.06;96865.84;5015623;28;20022;-26
2022/10/14 11:01:28;;;;;;;6.72;4.57;;;;;;;22.77;44.26;96872.16;5014505;28;20037;-28
2022/10/14 11:04:05;;;;;;;4.93;4.25;;;;;;;22.70;44.16;96875.38;5014354;28;20375;-27
2022/10/14 11:12:37;;;;;;;5.32;4.10;;;;;;;22.74;44.17;96862.09;5016074;28;20024;-27
2022/10/14 11:15:24;;;;;;;5.18;4.25;;;;;;;22.70;44.42;96858.78;5015918;28;20458;-27
2022/10/14 11:18:00;;;;;;;5.20;4.00;;;;;;;22.75;44.26;96864.34;5015659;28;20022;-27
2022/10/14 11:20:44;;;;;;;5.53;4.32;;;;;;;22.75;44.02;96860.84;5015344;28;20030;-28
2022/10/14 11:23:34;;;;;;;5.10;4.07;;;;;;;22.56;44.65;96858.50;5015522;28;20041;-28
2022/10/14 11:26:23;;;;;;;5.35;4.43;;;;;;;22.74;44.58;96856.56;5015527;28;20482;-27
2022/10/14 11:28:50;;;;;;;5.55;4.40;;;;;;;22.66;44.54;96853.50;5015500;28;20088;-26
2022/10/14 11:31:40;;;;;;;5.78;4.30;;;;;;;22.67;44.35;96846.72;5015374;28;20018;-27
2022/10/14 11:34:20;;;;;;;4.55;3.95;;;;;;;22.50;45.07;96851.44;5014218;28;20463;-28
2022/10/14 11:37:17;;;;;;;4.47;3.53;;;;;;;22.70;44.47;96844.97;5015491;28;20037;-27
2022/10/14 11:39:55;;;;;;;5.45;4.47;;;;;;;22.73;44.54;96838.47;5014968;28;20045;-27
2022/10/14 11:42:42;;;;;;;4.70;4.18;;;;;;;22.75;44.35;96833.19;5015074;28;20064;-28
2022/10/14 11:45:32;;;;;;;5.85;4.40;;;;;;;22.78;44.33;96834.97;5016703;28;20030;-27
2022/10/14 11:48:18;;;;;;;4.95;4.45;;;;;;;22.88;44.50;96830.72;5031038;28;20428;-27
2022/10/14 11:50:49;;;;;;;5.45;4.05;;;;;;;22.83;44.47;96820.41;5024084;28;20700;-27
2022/10/14 11:53:32;;;;;;;5.55;4.70;;;;;;;22.75;44.66;96825.63;5013044;28;20052;-28
2022/10/14 11:56:03;;;;;;;5.50;4.07;;;;;;;22.78;44.32;96823.91;5012806;28;20030;-27
2022/10/14 11:58:31;;;;;;;6.55;4.00;;;;;;;22.82;44.61;96821.66;5012346;28;20105;-27